Time;durP1;ratioP1;P1;durP2;ratioP2;P2;SDS_P1;SDS_P2;PMS_P1;PMS_P2;Temp;Humidity;BMP_temperature;BMP_pressure;BME280_temperature;BME280_humidity;BME280_pressure;Samples;Min_cycle;Max_cycle;Signal;HPM_P1;HPM_P2
2021/04/22 13:00:16;;;;;;;8.63;2.33;;;13.50;44.90;;;12.06;100.00;100689.91;4913324;28;99997;-63
2021/04/22 18:12:40;;;;;;;6.07;3.23;;;9.90;56.30;;;11.04;100.00;100795.78;4930379;28;94712;-62
2021/04/22 18:15:52;;;;;;;10.00;3.27;;;9.90;56.70;;;11.03;100.00;100802.97;4953471;28;85044;-62
2021/04/22 18:19:27;;;;;;;11.27;4.00;;;9.90;57.20;;;10.86;100.00;100814.47;4957469;28;78522;-62
2021/04/22 18:22:39;;;;;;;8.80;3.43;;;9.90;57.70;;;10.83;100.00;100825.47;4912705;28;80013;-62
2021/04/22 18:26:18;;;;;;;7.03;3.00;;;9.90;58.00;;;10.78;100.00;100830.41;4893543;28;88168;-63
2021/04/22 18:29:30;;;;;;;9.27;2.80;;;9.80;58.70;;;10.69;100.00;100831.28;4835684;29;91471;-63
2021/04/22 18:32:41;;;;;;;10.83;3.30;;;9.80;59.80;;;10.57;100.00;100835.13;4855440;28;97264;-62
2021/04/22 18:35:53;;;;;;;7.90;3.57;;;9.80;60.50;;;10.57;100.00;100829.78;4880973;28;96615;-62
2021/04/22 18:39:06;;;;;;;4.83;3.27;;;9.70;61.20;;;10.54;100.00;100838.09;4889270;28;96451;-61
2021/04/22 18:42:17;;;;;;;7.73;3.97;;;9.70;61.70;;;10.52;100.00;100842.72;4918382;28;98548;-62
2021/04/22 18:45:31;;;;;;;7.17;3.13;;;9.60;61.90;;;10.44;100.00;100849.66;4946786;28;99902;-62
2021/04/22 18:48:42;;;;;;;7.33;3.43;;;9.50;62.50;;;10.32;100.00;100848.13;4959729;28;95988;-62
2021/04/22 18:51:54;;;;;;;4.70;3.03;;;9.40;63.00;;;10.31;100.00;100848.28;4956580;28;95959;-62
2021/04/22 18:55:06;;;;;;;8.07;3.33;;;9.30;63.70;;;10.19;100.00;100852.09;4936519;28;99263;-62
2021/04/22 18:58:18;;;;;;;12.13;4.03;;;9.30;64.60;;;9.96;100.00;100852.34;4945729;28;99944;-61
2021/04/22 19:01:31;;;;;;;6.70;3.77;;;9.20;65.00;;;9.90;100.00;100847.53;4947066;28;100042;-62
2021/04/22 19:04:43;;;;;;;8.20;3.50;;;9.10;65.70;;;9.87;100.00;100863.03;4940334;28;100363;-61
2021/04/22 19:07:56;;;;;;;12.13;3.83;;;9.00;66.20;;;9.84;100.00;100863.31;4927908;28;100214;-61
2021/04/22 19:11:13;;;;;;;5.87;3.53;;;8.80;67.00;;;9.87;100.00;100868.38;4927175;28;99935;-62
2021/04/22 19:14:33;;;;;;;8.03;3.33;;;8.70;67.70;;;9.77;100.00;100873.69;4926891;28;100140;-62
2021/04/22 19:17:46;;;;;;;7.30;3.40;;;8.60;68.20;;;9.69;100.00;100866.38;4947693;28;99800;-61
2021/04/22 19:20:58;;;;;;;7.37;3.50;;;8.50;69.10;;;9.65;100.00;100872.97;4948598;28;100044;-61
2021/04/22 19:24:22;;;;;;;11.17;4.33;;;8.40;69.90;;;9.59;100.00;100873.53;4928598;28;101254;-61
2021/04/22 19:27:34;;;;;;;8.10;3.57;;;8.30;70.70;;;9.57;100.00;100877.31;4947855;28;100192;-61
2021/04/22 19:30:47;;;;;;;9.33;4.40;;;8.20;71.60;;;9.58;100.00;100877.19;4950391;28;100088;-61
2021/04/22 19:34:00;;;;;;;7.37;3.60;;;8.20;72.50;;;9.63;100.00;100880.31;4948469;28;99749;-61
2021/04/22 19:37:11;;;;;;;7.33;3.70;;;8.20;73.30;;;9.64;100.00;100884.66;4912785;28;100316;-60
2021/04/22 19:40:24;;;;;;;7.23;3.80;;;8.30;74.10;;;9.63;100.00;100891.00;4910472;28;100007;-61
2021/04/22 19:43:38;;;;;;;5.33;3.60;;;8.30;74.90;;;9.66;100.00;100896.03;4910938;28;100062;-60
2021/04/22 19:46:49;;;;;;;7.67;3.30;;;8.40;75.20;;;9.52;100.00;100893.75;4942866;28;100167;-61
2021/04/22 19:50:01;;;;;;;12.83;4.17;;;8.40;75.50;;;9.67;100.00;100903.09;4947262;28;100282;-61
2021/04/22 19:53:13;;;;;;;6.10;3.07;;;8.40;76.10;;;9.71;100.00;100901.84;4946838;28;99929;-62
2021/04/22 19:56:25;;;;;;;7.90;3.87;;;8.50;75.90;;;9.84;100.00;100906.06;4945701;28;100277;-61
2021/04/22 19:59:36;;;;;;;6.20;3.03;;;8.50;75.70;;;9.86;100.00;100915.66;4952544;28;100153;-62
2021/04/22 20:02:48;;;;;;;5.73;3.07;;;8.50;75.40;;;9.85;100.00;100905.09;4947719;28;100550;-61
2021/04/22 20:06:06;;;;;;;7.37;3.77;;;8.60;75.30;;;9.87;100.00;100924.50;4949724;28;99668;-61
2021/04/22 20:09:19;;;;;;;8.03;3.13;;;8.60;75.00;;;9.85;100.00;100913.97;4934692;28;99254;-61
2021/04/22 20:12:42;;;;;;;7.37;3.10;;;8.60;75.00;;;9.86;100.00;100912.13;4933685;28;99992;-60
2021/04/22 20:15:53;;;;;;;7.37;3.40;;;8.60;75.10;;;9.87;100.00;100925.38;4928682;28;101179;-61
2021/04/22 20:23:06;;;;;;;8.97;3.10;;;8.60;74.80;;;9.96;100.00;100926.34;4918492;28;100115;-61
2021/04/22 20:26:17;;;;;;;7.10;3.00;;;8.60;74.20;;;10.01;100.00;100924.13;4940263;28;99862;-61
2021/04/22 20:29:29;;;;;;;6.43;2.80;;;8.70;73.80;;;10.03;100.00;100925.66;4920302;28;96792;-61
2021/04/22 20:32:40;;;;;;;6.63;2.90;;;8.70;73.50;;;10.00;100.00;100927.78;4906280;28;90673;-61
2021/04/22 20:35:52;;;;;;;7.37;2.93;;;8.70;73.30;;;10.00;100.00;100922.44;4910558;28;99536;-61
2021/04/22 20:39:05;;;;;;;7.70;2.80;;;8.70;73.00;;;9.96;100.00;100929.03;4948559;28;99130;-61
2021/04/22 20:42:16;;;;;;;5.20;2.97;;;8.70;72.40;;;9.88;100.00;100928.88;4947708;28;99999;-61
2021/04/22 20:45:29;;;;;;;4.33;2.60;;;8.60;72.60;;;9.84;100.00;100924.78;4936947;28;99443;-61
2021/04/22 20:48:43;;;;;;;4.93;2.87;;;8.60;72.40;;;9.85;100.00;100927.31;4935857;28;100235;-62
2021/04/22 20:51:54;;;;;;;6.83;3.33;;;8.50;72.00;;;9.80;100.00;100932.22;4927078;28;100219;-62
2021/04/22 20:55:07;;;;;;;7.30;3.57;;;8.50;72.10;;;9.76;100.00;100928.16;4924277;28;103061;-61
2021/04/22 20:58:18;;;;;;;7.27;2.73;;;8.40;72.40;;;9.80;100.00;100939.41;4943475;28;100096;-61
2021/04/22 21:05:12;;;;;;;7.50;2.97;;;8.20;73.80;;;9.51;100.00;100937.50;4927627;28;100260;-61
2021/04/22 21:08:24;;;;;;;6.63;3.00;;;8.10;74.30;;;9.51;100.00;100944.69;4933219;28;100176;-61
2021/04/22 21:11:43;;;;;;;6.30;3.00;;;8.00;74.80;;;9.44;100.00;100936.34;4945376;28;100073;-60
2021/04/22 21:14:54;;;;;;;6.17;2.80;;;8.00;75.50;;;9.48;100.00;100940.44;4945357;28;99856;-63
2021/04/22 21:18:06;;;;;;;4.13;2.93;;;7.90;75.90;;;9.39;100.00;100946.59;4944909;28;100339;-59
2021/04/22 21:25:32;;;;;;;6.33;3.33;;;7.80;77.10;;;9.28;100.00;100941.31;4885484;28;100213;-61
2021/04/22 21:29:15;;;;;;;5.70;2.47;;;7.70;78.00;;;9.30;100.00;100950.06;4905643;28;100598;-62
2021/04/22 21:32:30;;;;;;;7.80;2.97;;;7.60;78.80;;;9.11;100.00;100948.16;4922018;28;100084;-61
2021/04/22 21:35:53;;;;;;;7.03;2.83;;;7.50;79.50;;;9.06;100.00;100946.84;4940963;28;100059;-61
2021/04/22 21:51:08;;;;;;;5.77;2.93;;;7.20;83.30;;;9.06;100.00;100957.53;4873895;28;100831;-61
2021/04/22 21:54:54;;;;;;;9.33;3.13;;;7.30;84.00;;;9.07;100.00;100952.06;4839272;28;100042;-63
2021/04/22 21:58:05;;;;;;;5.43;2.97;;;7.40;84.40;;;9.12;100.00;100957.00;4844299;28;100521;-63
2021/04/22 22:01:25;;;;;;;11.73;3.27;;;7.40;84.60;;;9.20;100.00;100959.84;4844567;28;99896;-61
2021/04/22 22:04:37;;;;;;;7.57;3.10;;;7.50;84.40;;;9.26;100.00;100965.53;4870571;28;101522;-61
2021/04/22 22:07:48;;;;;;;5.73;2.80;;;7.50;84.50;;;9.25;100.00;100957.63;4905624;28;100508;-61
2021/04/22 22:11:07;;;;;;;4.60;2.50;;;7.60;84.60;;;9.34;100.00;100956.81;4916781;28;100155;-61
2021/04/22 22:22:06;;;;;;;9.33;3.07;;;7.80;84.00;;;9.40;100.00;100968.78;4868588;28;100747;-62
2021/04/22 22:25:18;;;;;;;7.00;2.93;;;7.80;84.00;;;9.40;100.00;100963.44;4924553;28;100181;-61
2021/04/22 22:29:06;;;;;;;6.67;2.93;;;7.90;83.80;;;9.42;100.00;100962.34;4904297;28;100077;-62
2021/04/22 22:32:19;;;;;;;6.10;2.40;;;7.90;83.90;;;9.40;100.00;100966.97;4894944;28;100066;-60
2021/04/22 22:35:31;;;;;;;6.47;2.30;;;8.00;83.60;;;9.38;100.00;100962.75;4906854;28;99877;-61
2021/04/22 22:38:43;;;;;;;6.40;3.57;;;8.00;83.50;;;9.38;100.00;100962.75;4924766;28;100239;-61
2021/04/22 22:41:56;;;;;;;8.30;2.57;;;8.00;83.40;;;9.43;100.00;100966.69;4928496;28;100528;-61
2021/04/22 22:45:08;;;;;;;7.37;3.47;;;8.00;83.50;;;9.48;100.00;100969.81;4929336;28;100223;-61
2021/04/22 22:48:19;;;;;;;7.03;3.27;;;8.00;83.30;;;9.46;100.00;100969.13;4927995;28;100539;-61
2021/04/22 22:51:30;;;;;;;5.53;3.17;;;8.10;83.60;;;9.40;100.00;100974.97;4926472;28;100264;-61
2021/04/22 22:54:42;;;;;;;6.27;2.63;;;8.00;83.50;;;9.38;100.00;100974.28;4927613;28;100088;-60
2021/04/22 22:57:53;;;;;;;14.07;3.50;;;8.10;83.50;;;9.29;100.00;100980.41;4941317;28;100398;-62
2021/04/22 23:01:18;;;;;;;6.73;2.90;;;8.10;83.90;;;9.33;100.00;100987.19;4946817;28;100870;-61
2021/04/22 23:04:30;;;;;;;4.33;2.53;;;8.10;83.60;;;9.32;100.00;100981.00;4947761;28;100191;-61
2021/04/22 23:07:42;;;;;;;7.53;3.20;;;8.10;83.50;;;9.29;100.00;100986.59;4947407;28;100235;-61
2021/04/22 23:10:53;;;;;;;4.27;2.50;;;8.00;83.40;;;9.28;100.00;100990.25;4945972;28;101126;-62
2021/04/22 23:14:05;;;;;;;8.87;3.03;;;8.00;83.30;;;9.21;100.00;101005.13;4947825;28;100304;-62
2021/04/22 23:17:18;;;;;;;5.53;2.57;;;8.00;83.30;;;9.19;100.00;101004.41;4927032;28;100145;-62
2021/04/22 23:20:32;;;;;;;5.87;2.83;;;7.90;83.30;;;9.14;100.00;101003.13;4943161;28;99891;-61
2021/04/22 23:23:44;;;;;;;6.53;3.00;;;7.90;83.70;;;9.09;100.00;101005.31;4946920;28;100348;-61
2021/04/22 23:26:55;;;;;;;6.00;2.87;;;7.80;83.60;;;9.01;100.00;101005.97;4928496;28;101119;-62
2021/04/22 23:30:07;;;;;;;5.10;2.73;;;7.80;83.70;;;8.96;100.00;101002.84;4945339;28;99946;-61
2021/04/22 23:33:25;;;;;;;6.23;2.97;;;7.70;83.80;;;8.98;100.00;101006.25;4946778;28;99991;-62
2021/04/22 23:36:37;;;;;;;4.17;3.03;;;7.70;83.90;;;8.98;100.00;101004.41;4946403;28;100385;-61
2021/04/22 23:43:14;;;;;;;5.40;2.73;;;7.70;83.50;;;8.97;100.00;101005.38;4927783;28;100308;-61
2021/04/22 23:46:29;;;;;;;4.43;3.00;;;7.70;83.10;;;8.95;100.00;101007.34;4945603;28;100213;-61
2021/04/22 23:49:42;;;;;;;5.10;2.53;;;7.70;83.00;;;8.96;100.00;101011.69;4907137;28;100492;-62
2021/04/22 23:52:53;;;;;;;7.43;3.33;;;7.70;82.90;;;8.93;100.00;101005.78;4906916;28;100880;-61
2021/04/22 23:56:06;;;;;;;5.50;3.23;;;7.70;82.60;;;8.93;100.00;101003.09;4907385;28;99921;-61
2021/04/22 23:59:17;;;;;;;4.70;2.80;;;7.70;82.60;;;8.92;100.00;101007.59;4907280;28;100165;-62
